createdAt,value
2023-01-30T00:02:03.193Z,-2.90
2023-01-30T00:04:31.451Z,-2.90
2023-01-30T00:07:01.176Z,-2.90
2023-01-30T00:09:29.374Z,-2.90
2023-01-30T00:11:57.607Z,-2.80
2023-01-30T00:14:25.836Z,-2.80
2023-01-30T00:16:54.018Z,-2.70
2023-01-30T00:19:24.382Z,-2.60
2023-01-30T00:21:52.621Z,-2.50
2023-01-30T00:24:22.329Z,-2.40
2023-01-30T00:26:50.754Z,-2.30
2023-01-30T00:29:19.019Z,-2.30
2023-01-30T00:31:47.272Z,-2.20
2023-01-30T00:34:15.519Z,-2.20
2023-01-30T00:36:43.670Z,-2.10
2023-01-30T00:39:11.914Z,-2.10
2023-01-30T00:41:59.153Z,-2.10
2023-01-30T00:44:44.785Z,-2.00
2023-01-30T00:47:13.157Z,-2.00
2023-01-30T00:49:42.472Z,-2.00
2023-01-30T00:52:10.748Z,-2.00
2023-01-30T00:54:39.163Z,-2.10
2023-01-30T00:57:08.855Z,-2.10
2023-01-30T00:59:37.227Z,-2.20
2023-01-30T01:02:05.833Z,-2.20
2023-01-30T01:04:43.441Z,-2.30
2023-01-30T01:07:13.448Z,-2.30
2023-01-30T01:09:41.737Z,-2.30
2023-01-30T01:12:11.311Z,-2.30
2023-01-30T01:14:39.487Z,-2.30
2023-01-30T01:17:07.974Z,-2.30
2023-01-30T01:19:36.822Z,-2.30
2023-01-30T01:22:05.045Z,-2.30
2023-01-30T01:24:34.515Z,-2.40
2023-01-30T01:27:02.951Z,-2.40
2023-01-30T01:29:32.566Z,-2.50
2023-01-30T01:32:00.809Z,-2.50
2023-01-30T01:34:29.393Z,-2.50
2023-01-30T01:36:57.555Z,-2.50
2023-01-30T01:39:45.786Z,-2.50
2023-01-30T01:42:13.540Z,-2.40
2023-01-30T01:45:14.271Z,-2.40
2023-01-30T01:47:45.983Z,-2.40
2023-01-30T01:50:18.017Z,-2.40
2023-01-30T01:52:47.703Z,-2.30
2023-01-30T01:55:17.429Z,-2.30
2023-01-30T01:57:50.444Z,-2.30
2023-01-30T02:00:22.201Z,-2.30
2023-01-30T02:02:55.611Z,-2.30
2023-01-30T02:05:25.110Z,-2.40
2023-01-30T02:07:59.138Z,-2.40
2023-01-30T02:10:33.864Z,-2.40
2023-01-30T02:13:02.149Z,-2.50
2023-01-30T02:15:31.945Z,-2.60
2023-01-30T02:18:00.146Z,-2.60
2023-01-30T02:20:38.533Z,-2.70
2023-01-30T02:23:39.232Z,-2.70
2023-01-30T02:26:59.509Z,-2.80
2023-01-30T02:30:06.404Z,-2.90
2023-01-30T02:32:42.382Z,-2.90
2023-01-30T02:35:18.779Z,-3.00
2023-01-30T02:37:57.228Z,-3.00
2023-01-30T02:40:40.327Z,-3.10
2023-01-30T02:43:16.972Z,-3.10
2023-01-30T02:45:54.413Z,-3.10
2023-01-30T02:48:28.302Z,-3.10
2023-01-30T02:51:00.638Z,-3.10
2023-01-30T02:53:32.763Z,-3.20
2023-01-30T02:56:01.529Z,-3.20
2023-01-30T02:58:34.997Z,-3.20
2023-01-30T03:01:47.557Z,-3.10
2023-01-30T03:04:36.222Z,-3.10
2023-01-30T03:07:23.567Z,-2.90
2023-01-30T03:10:02.351Z,-2.80
2023-01-30T03:12:41.972Z,-2.60
2023-01-30T03:15:18.872Z,-2.50
2023-01-30T03:17:49.652Z,-2.30
2023-01-30T03:20:22.266Z,-2.20
2023-01-30T03:22:51.340Z,-2.00
2023-01-30T03:25:23.738Z,-1.90
2023-01-30T03:27:54.596Z,-1.70
2023-01-30T03:30:25.738Z,-1.60
2023-01-30T03:32:59.862Z,-1.50
2023-01-30T03:35:31.478Z,-1.40
2023-01-30T03:38:00.158Z,-1.30
2023-01-30T03:40:28.637Z,-1.20
2023-01-30T03:42:56.971Z,-1.10
2023-01-30T03:45:25.467Z,-1.00
2023-01-30T03:47:54.460Z,-0.90
2023-01-30T03:50:22.819Z,-0.90
2023-01-30T03:52:52.413Z,-0.90
2023-01-30T03:55:22.232Z,-0.80
2023-01-30T03:57:50.789Z,-0.90
2023-01-30T04:00:20.758Z,-0.80
2023-01-30T04:02:51.420Z,-0.80
2023-01-30T04:05:20.034Z,-0.90
2023-01-30T04:07:57.584Z,-0.90
2023-01-30T04:10:26.507Z,-0.90
2023-01-30T04:12:55.377Z,-0.90
2023-01-30T04:15:24.394Z,-0.80
2023-01-30T04:18:11.017Z,-0.80
2023-01-30T04:20:52.126Z,-0.70
2023-01-30T04:23:27.849Z,-0.60
2023-01-30T04:25:56.108Z,-0.50
2023-01-30T04:28:26.337Z,-0.50
2023-01-30T04:30:55.598Z,-0.30
2023-01-30T04:33:40.220Z,-0.20
2023-01-30T04:36:11.547Z,-0.20
2023-01-30T04:38:42.448Z,-0.10
2023-01-30T04:41:10.720Z,0.00
2023-01-30T04:43:41.990Z,0.00
2023-01-30T04:46:28.584Z,0.10
2023-01-30T04:48:57.733Z,0.20
2023-01-30T04:51:27.254Z,0.30
2023-01-30T04:53:56.869Z,0.30
2023-01-30T04:56:25.289Z,0.30
2023-01-30T04:58:54.521Z,0.40
2023-01-30T05:01:26.228Z,0.40
2023-01-30T05:03:55.125Z,0.40
2023-01-30T05:06:23.983Z,0.50
2023-01-30T05:08:53.385Z,0.50
2023-01-30T05:11:24.019Z,0.50
2023-01-30T05:13:52.530Z,0.50
2023-01-30T05:16:23.757Z,0.50
2023-01-30T05:18:52.744Z,0.50
2023-01-30T05:21:23.368Z,0.50
2023-01-30T05:23:52.683Z,0.40
2023-01-30T05:26:22.750Z,0.40
2023-01-30T05:28:53.645Z,0.40
2023-01-30T05:31:22.414Z,0.40
2023-01-30T05:33:52.433Z,0.40
2023-01-30T05:36:23.297Z,0.40
2023-01-30T05:38:51.561Z,0.40
2023-01-30T05:41:19.849Z,0.40
2023-01-30T05:43:52.314Z,0.50
2023-01-30T05:46:20.835Z,0.50
2023-01-30T05:48:49.245Z,0.50
2023-01-30T05:51:19.749Z,0.60
2023-01-30T05:53:48.278Z,0.60
2023-01-30T05:56:16.717Z,0.60
2023-01-30T05:58:45.058Z,0.60
2023-01-30T06:01:14.668Z,0.60
2023-01-30T06:03:43.081Z,0.60
2023-01-30T06:06:13.297Z,0.60
2023-01-30T06:08:41.718Z,0.60
2023-01-30T06:11:11.899Z,0.60
2023-01-30T06:13:41.757Z,0.50
2023-01-30T06:16:12.025Z,0.50
2023-01-30T06:18:41.947Z,0.60
2023-01-30T06:21:10.824Z,0.50
2023-01-30T06:23:39.528Z,0.50
2023-01-30T06:26:09.190Z,0.50
2023-01-30T06:28:38.237Z,0.50
2023-01-30T06:31:07.961Z,0.50
2023-01-30T06:33:36.477Z,0.50
2023-01-30T06:36:06.472Z,0.40
2023-01-30T06:38:34.701Z,0.50
2023-01-30T06:41:03.282Z,0.50
2023-01-30T06:43:31.499Z,0.40
2023-01-30T06:46:00.611Z,0.50
2023-01-30T06:48:28.884Z,0.50
2023-01-30T06:50:57.215Z,0.50
2023-01-30T06:53:30.628Z,0.50
2023-01-30T06:55:59.523Z,0.60
2023-01-30T06:58:28.058Z,0.60
2023-01-30T07:00:56.492Z,0.60
2023-01-30T07:03:24.953Z,0.60
2023-01-30T07:05:53.540Z,0.60
2023-01-30T07:08:23.987Z,0.70
2023-01-30T07:10:54.042Z,0.70
2023-01-30T07:13:22.292Z,0.70
2023-01-30T07:15:50.596Z,0.70
2023-01-30T07:18:19.013Z,0.70
2023-01-30T07:20:48.724Z,0.70
2023-01-30T07:23:17.989Z,0.80
2023-01-30T07:25:46.478Z,0.90
2023-01-30T07:28:16.090Z,0.90
2023-01-30T07:30:44.581Z,0.90
2023-01-30T07:33:12.849Z,0.90
2023-01-30T07:35:40.977Z,1.00
2023-01-30T07:38:09.292Z,1.00
2023-01-30T07:40:37.875Z,1.00
2023-01-30T07:43:07.882Z,1.00
2023-01-30T07:45:39.831Z,1.00
2023-01-30T07:48:08.908Z,1.00
2023-01-30T07:50:37.192Z,1.00
2023-01-30T07:53:06.152Z,1.10
2023-01-30T07:55:35.148Z,1.20
2023-01-30T07:58:03.833Z,1.20
2023-01-30T08:00:32.767Z,1.30
2023-01-30T08:03:02.417Z,1.30
2023-01-30T08:05:30.624Z,1.40
2023-01-30T08:08:00.866Z,1.40
2023-01-30T08:10:29.196Z,1.40
2023-01-30T08:12:57.456Z,1.40
2023-01-30T08:15:25.681Z,1.40
2023-01-30T08:17:58.190Z,1.40
2023-01-30T08:20:28.422Z,1.40
2023-01-30T08:22:57.130Z,1.40
2023-01-30T08:25:25.415Z,1.50
2023-01-30T08:27:54.079Z,1.50
2023-01-30T08:30:23.227Z,1.50
2023-01-30T08:32:51.538Z,1.40
2023-01-30T08:35:19.985Z,1.40
2023-01-30T08:37:49.613Z,1.50
2023-01-30T08:40:18.258Z,1.50
2023-01-30T08:42:46.912Z,1.60
2023-01-30T08:45:15.543Z,1.60
2023-01-30T08:47:43.947Z,1.50
2023-01-30T08:50:12.917Z,1.50
2023-01-30T08:52:41.243Z,1.50
2023-01-30T08:55:11.818Z,1.40
2023-01-30T08:57:40.128Z,1.50
2023-01-30T09:00:10.118Z,1.50
2023-01-30T09:02:38.472Z,1.50
2023-01-30T09:05:08.419Z,1.60
2023-01-30T09:07:36.797Z,1.60
2023-01-30T09:10:05.577Z,1.60
2023-01-30T09:12:35.307Z,1.70
2023-01-30T09:15:03.578Z,1.80
2023-01-30T09:17:31.925Z,1.80
2023-01-30T09:20:01.131Z,2.00
2023-01-30T09:22:29.408Z,2.10
2023-01-30T09:24:59.109Z,2.10
2023-01-30T09:27:27.641Z,2.20
2023-01-30T09:29:57.428Z,2.30
2023-01-30T09:32:25.645Z,2.30
2023-01-30T09:34:54.233Z,2.30
2023-01-30T09:37:22.542Z,2.30
2023-01-30T09:39:50.709Z,2.20
2023-01-30T09:42:39.267Z,2.20
2023-01-30T09:45:39.869Z,2.20
2023-01-30T09:48:18.100Z,2.30
2023-01-30T09:51:12.547Z,2.20
2023-01-30T09:54:00.224Z,2.30
2023-01-30T09:56:29.505Z,2.30
2023-01-30T09:58:59.852Z,2.30
2023-01-30T10:01:38.217Z,2.30
2023-01-30T10:04:14.596Z,2.30
2023-01-30T10:06:52.189Z,2.30
2023-01-30T10:09:34.380Z,2.40
2023-01-30T10:12:20.491Z,2.30
2023-01-30T10:15:20.080Z,2.40
2023-01-30T10:18:05.820Z,2.40
2023-01-30T10:20:44.575Z,2.60
2023-01-30T10:23:31.303Z,2.60
2023-01-30T10:26:03.425Z,2.60
2023-01-30T10:28:36.326Z,2.50
2023-01-30T10:31:09.888Z,2.50
2023-01-30T10:33:45.408Z,2.60
2023-01-30T10:36:17.201Z,2.60
2023-01-30T10:38:49.928Z,2.60
2023-01-30T10:41:27.068Z,2.70
2023-01-30T10:44:02.451Z,2.70
2023-01-30T10:46:47.758Z,2.70
2023-01-30T10:49:22.924Z,2.60
2023-01-30T10:51:59.167Z,2.50
2023-01-30T10:54:34.027Z,2.50
2023-01-30T10:57:08.067Z,2.50
2023-01-30T10:59:50.182Z,2.40
2023-01-30T11:02:25.604Z,2.50
2023-01-30T11:05:00.299Z,2.50
2023-01-30T11:07:32.109Z,2.50
2023-01-30T11:10:01.962Z,2.50
2023-01-30T11:12:30.237Z,2.50
2023-01-30T11:15:00.059Z,2.50
2023-01-30T11:17:35.241Z,2.50
2023-01-30T11:20:13.692Z,2.40
2023-01-30T11:22:48.328Z,2.40
2023-01-30T11:25:20.028Z,2.40
2023-01-30T11:27:55.047Z,2.30
2023-01-30T11:30:27.684Z,2.30
2023-01-30T11:33:09.071Z,2.30
2023-01-30T11:35:46.535Z,2.30
2023-01-30T11:38:23.230Z,2.30
2023-01-30T11:41:02.189Z,2.40
2023-01-30T11:43:30.927Z,2.50
2023-01-30T11:46:00.429Z,2.50
2023-01-30T11:48:33.753Z,2.50
2023-01-30T11:51:21.917Z,2.50
2023-01-30T11:53:54.934Z,2.60
2023-01-30T11:56:26.465Z,2.60
2023-01-30T11:58:59.126Z,2.60
2023-01-30T12:01:29.824Z,2.70
2023-01-30T12:03:58.954Z,2.80
2023-01-30T12:06:31.731Z,2.80
2023-01-30T12:09:00.479Z,2.90
2023-01-30T12:11:32.829Z,2.90
2023-01-30T12:14:20.173Z,3.00
2023-01-30T12:16:57.218Z,3.10
2023-01-30T12:19:35.360Z,3.20
2023-01-30T12:22:16.831Z,3.30
2023-01-30T12:24:52.056Z,3.30
2023-01-30T12:27:26.989Z,3.30
2023-01-30T12:30:01.645Z,3.30
2023-01-30T12:32:32.098Z,3.30
2023-01-30T12:35:00.603Z,3.30
2023-01-30T12:37:41.541Z,3.20
2023-01-30T12:40:21.495Z,3.10
2023-01-30T12:43:05.414Z,3.10
2023-01-30T12:45:38.289Z,3.00
2023-01-30T12:48:36.208Z,2.90
2023-01-30T12:51:20.585Z,2.70
2023-01-30T12:53:58.918Z,2.60
2023-01-30T12:56:49.357Z,2.50
2023-01-30T12:59:23.127Z,2.40
2023-01-30T13:02:04.108Z,2.30
2023-01-30T13:04:56.156Z,2.30
2023-01-30T13:07:31.531Z,2.20
2023-01-30T13:10:09.896Z,2.20
2023-01-30T13:12:44.177Z,2.20
2023-01-30T13:15:23.926Z,2.20
2023-01-30T13:18:02.343Z,2.20
2023-01-30T13:20:51.661Z,2.20
2023-01-30T13:23:23.537Z,2.20
2023-01-30T13:26:01.213Z,2.20
2023-01-30T13:28:34.475Z,2.10
2023-01-30T13:31:05.639Z,2.20
2023-01-30T13:33:36.786Z,2.20
2023-01-30T13:36:12.194Z,2.20
2023-01-30T13:38:45.009Z,2.20
2023-01-30T13:41:19.012Z,2.30
2023-01-30T13:43:52.147Z,2.30
2023-01-30T13:46:25.701Z,2.30
2023-01-30T13:49:06.920Z,2.40
2023-01-30T13:51:51.990Z,2.50
2023-01-30T13:54:31.171Z,2.50
2023-01-30T13:57:17.579Z,2.60
2023-01-30T14:00:23.698Z,2.60
2023-01-30T14:03:31.742Z,2.70
2023-01-30T14:06:16.088Z,2.80
2023-01-30T14:08:55.001Z,2.80
2023-01-30T14:11:44.176Z,2.90
2023-01-30T14:14:26.584Z,2.90
2023-01-30T14:16:57.122Z,3.00
2023-01-30T14:19:46.380Z,3.00
2023-01-30T14:22:27.791Z,3.10
2023-01-30T14:25:45.431Z,3.10
2023-01-30T14:28:51.101Z,3.10
2023-01-30T14:31:54.974Z,3.10
2023-01-30T14:34:49.271Z,3.10
2023-01-30T14:37:49.329Z,3.10
2023-01-30T14:40:36.103Z,3.20
2023-01-30T14:43:41.030Z,3.20
2023-01-30T14:46:29.199Z,3.20
2023-01-30T14:49:05.140Z,3.30
2023-01-30T14:51:37.103Z,3.30
2023-01-30T14:54:11.188Z,3.30
2023-01-30T14:56:46.853Z,3.30
2023-01-30T14:59:26.386Z,3.30
2023-01-30T15:02:21.568Z,3.30
2023-01-30T15:05:03.970Z,3.30
2023-01-30T15:07:38.975Z,3.30
2023-01-30T15:10:14.848Z,3.30
2023-01-30T15:13:10.388Z,3.30
2023-01-30T15:15:47.829Z,3.40
2023-01-30T15:18:41.618Z,3.40
2023-01-30T15:21:41.703Z,3.40
2023-01-30T15:24:28.470Z,3.40
2023-01-30T15:27:06.185Z,3.40
2023-01-30T15:30:16.993Z,3.40
2023-01-30T15:32:46.242Z,3.40
2023-01-30T15:35:25.503Z,3.40
2023-01-30T15:37:57.219Z,3.40
2023-01-30T15:40:27.413Z,3.50
2023-01-30T15:43:14.468Z,3.50
2023-01-30T15:45:52.587Z,3.50
2023-01-30T15:48:44.930Z,3.50
2023-01-30T15:51:16.517Z,3.50
2023-01-30T15:53:48.545Z,3.50
2023-01-30T15:56:21.422Z,3.50
2023-01-30T15:58:50.219Z,3.50
2023-01-30T16:01:21.648Z,3.50
2023-01-30T16:03:51.370Z,3.50
2023-01-30T16:06:25.150Z,3.50
2023-01-30T16:09:01.673Z,3.50
2023-01-30T16:11:35.564Z,3.50
2023-01-30T16:14:04.220Z,3.50
2023-01-30T16:16:35.404Z,3.60
2023-01-30T16:19:09.081Z,3.50
2023-01-30T16:21:41.085Z,3.60
2023-01-30T16:24:17.753Z,3.60
2023-01-30T16:26:49.730Z,3.60
2023-01-30T16:29:23.085Z,3.60
2023-01-30T16:31:53.918Z,3.60
2023-01-30T16:34:29.943Z,3.60
2023-01-30T16:37:03.729Z,3.60
2023-01-30T16:39:34.988Z,3.60
2023-01-30T16:42:18.114Z,3.60
2023-01-30T16:44:46.408Z,3.60
2023-01-30T16:47:24.623Z,3.60
2023-01-30T16:49:54.611Z,3.60
2023-01-30T16:52:24.981Z,3.60
2023-01-30T16:54:57.680Z,3.70
2023-01-30T16:57:36.656Z,3.70
2023-01-30T17:00:10.118Z,3.70
2023-01-30T17:02:42.466Z,3.70
2023-01-30T17:05:20.968Z,3.70
2023-01-30T17:07:50.472Z,3.70
2023-01-30T17:10:58.556Z,3.70
2023-01-30T17:13:36.048Z,3.70
2023-01-30T17:16:28.405Z,3.70
2023-01-30T17:18:58.284Z,3.70
2023-01-30T17:21:30.461Z,3.70
2023-01-30T17:24:01.430Z,3.70
2023-01-30T17:26:31.830Z,3.60
2023-01-30T17:29:00.296Z,3.60
2023-01-30T17:31:28.714Z,3.60
2023-01-30T17:33:57.349Z,3.60
2023-01-30T17:36:28.587Z,3.60
2023-01-30T17:38:58.742Z,3.60
2023-01-30T17:41:30.268Z,3.60
2023-01-30T17:44:00.184Z,3.60
2023-01-30T17:46:34.700Z,3.60
2023-01-30T17:49:03.060Z,3.60
2023-01-30T17:51:31.456Z,3.70
2023-01-30T17:53:59.936Z,3.70
2023-01-30T17:56:35.778Z,3.70
2023-01-30T17:59:10.656Z,3.70
2023-01-30T18:01:39.005Z,3.70
2023-01-30T18:04:09.919Z,3.70
2023-01-30T18:06:39.158Z,3.70
2023-01-30T18:09:08.008Z,3.80
2023-01-30T18:11:36.344Z,3.80
2023-01-30T18:14:07.237Z,3.80
2023-01-30T18:16:35.732Z,3.70
2023-01-30T18:19:05.577Z,3.60
2023-01-30T18:21:35.190Z,3.40
2023-01-30T18:24:04.006Z,3.30
2023-01-30T18:26:32.322Z,3.10
2023-01-30T18:29:00.929Z,3.00
2023-01-30T18:31:32.403Z,2.90
2023-01-30T18:34:00.674Z,2.80
2023-01-30T18:36:29.007Z,2.70
2023-01-30T18:38:57.361Z,2.60
2023-01-30T18:41:27.022Z,2.50
2023-01-30T18:43:56.857Z,2.40
2023-01-30T18:46:26.233Z,2.30
2023-01-30T18:48:57.034Z,2.30
2023-01-30T18:51:27.123Z,2.20
2023-01-30T18:53:56.499Z,2.10
2023-01-30T18:56:26.296Z,2.10
2023-01-30T18:58:56.371Z,2.00
2023-01-30T19:01:26.743Z,1.90
2023-01-30T19:03:57.627Z,1.90
2023-01-30T19:06:26.864Z,1.80
2023-01-30T19:08:55.281Z,1.70
2023-01-30T19:11:41.835Z,1.70
2023-01-30T19:14:10.619Z,1.60
2023-01-30T19:16:40.654Z,1.60
2023-01-30T19:19:11.245Z,1.70
2023-01-30T19:21:39.887Z,1.80
2023-01-30T19:24:12.644Z,1.90
2023-01-30T19:26:41.463Z,2.00
2023-01-30T19:29:10.774Z,2.20
2023-01-30T19:31:39.409Z,2.30
2023-01-30T19:34:08.810Z,2.40
2023-01-30T19:36:38.327Z,2.50
2023-01-30T19:39:07.019Z,2.60
2023-01-30T19:41:37.212Z,2.70
2023-01-30T19:44:07.881Z,2.70
2023-01-30T19:46:36.748Z,2.80
2023-01-30T19:49:05.810Z,2.90
2023-01-30T19:51:35.587Z,2.90
2023-01-30T19:54:07.099Z,2.90
2023-01-30T19:56:36.642Z,3.00
2023-01-30T19:59:05.203Z,3.00
2023-01-30T20:01:37.602Z,3.00
2023-01-30T20:04:06.521Z,3.10
2023-01-30T20:06:37.283Z,3.10
2023-01-30T20:09:09.755Z,3.20
2023-01-30T20:11:39.428Z,3.20
2023-01-30T20:14:08.222Z,3.20
2023-01-30T20:16:37.540Z,3.20
2023-01-30T20:19:10.977Z,3.20
2023-01-30T20:21:39.250Z,3.20
2023-01-30T20:24:13.221Z,3.20
2023-01-30T20:26:42.189Z,3.30
2023-01-30T20:29:11.397Z,3.30
2023-01-30T20:31:40.237Z,3.30
2023-01-30T20:34:12.596Z,3.30
2023-01-30T20:36:40.985Z,3.30
2023-01-30T20:39:10.598Z,3.30
2023-01-30T20:41:39.611Z,3.30
2023-01-30T20:44:11.591Z,3.30
2023-01-30T20:46:43.200Z,3.30
2023-01-30T20:49:14.366Z,3.30
2023-01-30T20:51:43.052Z,3.30
2023-01-30T20:54:14.684Z,3.30
2023-01-30T20:56:44.637Z,3.30
2023-01-30T20:59:14.989Z,3.40
2023-01-30T21:01:43.817Z,3.40
2023-01-30T21:04:15.335Z,3.40
2023-01-30T21:06:46.180Z,3.40
2023-01-30T21:09:17.844Z,3.50
2023-01-30T21:11:46.741Z,3.50
2023-01-30T21:14:15.837Z,3.50
2023-01-30T21:16:44.437Z,3.50
2023-01-30T21:19:16.483Z,3.60
2023-01-30T21:21:50.454Z,3.50
2023-01-30T21:24:23.793Z,3.60
2023-01-30T21:26:52.717Z,3.60
2023-01-30T21:29:23.424Z,3.60
2023-01-30T21:31:52.085Z,3.60
2023-01-30T21:34:20.427Z,3.70
2023-01-30T21:37:08.868Z,3.70
2023-01-30T21:39:55.913Z,3.70
2023-01-30T21:42:41.899Z,3.70
2023-01-30T21:45:10.504Z,3.70
2023-01-30T21:47:38.902Z,3.60
2023-01-30T21:50:08.039Z,3.70
2023-01-30T21:52:36.905Z,3.60
2023-01-30T21:55:07.059Z,3.60
2023-01-30T21:57:35.397Z,3.60
2023-01-30T22:00:03.926Z,3.70
2023-01-30T22:02:33.615Z,3.70
2023-01-30T22:05:01.801Z,3.70
2023-01-30T22:07:30.025Z,3.60
2023-01-30T22:09:58.258Z,3.70
2023-01-30T22:12:27.994Z,3.60
2023-01-30T22:14:56.248Z,3.70
2023-01-30T22:17:24.527Z,3.70
2023-01-30T22:19:52.973Z,3.70
2023-01-30T22:22:24.951Z,3.70
2023-01-30T22:24:53.214Z,3.70
2023-01-30T22:27:21.358Z,3.70
2023-01-30T22:29:50.863Z,3.70
2023-01-30T22:32:19.127Z,3.80
2023-01-30T22:34:47.307Z,3.70
2023-01-30T22:37:16.450Z,3.80
2023-01-30T22:39:44.679Z,3.70
2023-01-30T22:42:13.391Z,3.70
2023-01-30T22:44:41.881Z,3.70
2023-01-30T22:47:11.520Z,3.70
2023-01-30T22:49:39.780Z,3.70
2023-01-30T22:52:08.082Z,3.70
2023-01-30T22:54:36.262Z,3.70
2023-01-30T22:57:04.617Z,3.70
2023-01-30T22:59:32.922Z,3.70
2023-01-30T23:02:01.177Z,3.70
2023-01-30T23:04:30.946Z,3.60
2023-01-30T23:06:59.558Z,3.60
2023-01-30T23:09:27.833Z,3.60
2023-01-30T23:12:15.265Z,3.60
2023-01-30T23:14:45.019Z,3.60
2023-01-30T23:17:30.592Z,3.60
2023-01-30T23:20:00.562Z,3.50
2023-01-30T23:22:28.852Z,3.50
2023-01-30T23:24:57.149Z,3.50
2023-01-30T23:27:25.446Z,3.40
2023-01-30T23:29:53.702Z,3.40
2023-01-30T23:32:23.620Z,3.30
2023-01-30T23:34:51.927Z,3.20
2023-01-30T23:37:42.837Z,3.20
2023-01-30T23:40:12.268Z,3.10
2023-01-30T23:42:40.492Z,3.10
2023-01-30T23:45:10.034Z,3.10
2023-01-30T23:47:38.200Z,3.00
2023-01-30T23:50:07.254Z,3.00
2023-01-30T23:52:36.872Z,2.90
2023-01-30T23:55:05.721Z,2.90
2023-01-30T23:57:33.900Z,2.90
